sensor_id;sensor_type;location;lat;lon;timestamp;P1;durP1;ratioP1;P2;durP2;ratioP2
4420;SDS011;11824;51.178;13.546;2024-02-28T00:01:52;69.47;;;27.03;;
4420;SDS011;11824;51.178;13.546;2024-02-28T00:04:20;52.43;;;22.77;;
4420;SDS011;11824;51.178;13.546;2024-02-28T00:06:49;49.50;;;23.23;;
4420;SDS011;11824;51.178;13.546;2024-02-28T00:09:18;42.87;;;18.60;;
4420;SDS011;11824;51.178;13.546;2024-02-28T00:11:47;52.57;;;22.97;;
4420;SDS011;11824;51.178;13.546;2024-02-28T00:14:16;49.77;;;26.77;;
4420;SDS011;11824;51.178;13.546;2024-02-28T00:16:46;61.30;;;25.90;;
4420;SDS011;11824;51.178;13.546;2024-02-28T00:19:15;68.43;;;25.07;;
4420;SDS011;11824;51.178;13.546;2024-02-28T00:21:44;65.23;;;29.10;;
4420;SDS011;11824;51.178;13.546;2024-02-28T00:24:13;66.87;;;28.10;;
4420;SDS011;11824;51.178;13.546;2024-02-28T00:26:42;46.53;;;22.10;;
4420;SDS011;11824;51.178;13.546;2024-02-28T00:29:11;63.83;;;28.30;;
4420;SDS011;11824;51.178;13.546;2024-02-28T00:31:40;57.10;;;28.80;;
4420;SDS011;11824;51.178;13.546;2024-02-28T00:34:10;72.17;;;31.10;;
4420;SDS011;11824;51.178;13.546;2024-02-28T00:36:39;62.70;;;23.67;;
4420;SDS011;11824;51.178;13.546;2024-02-28T00:39:20;56.60;;;25.50;;
4420;SDS011;11824;51.178;13.546;2024-02-28T00:41:49;47.60;;;18.40;;
4420;SDS011;11824;51.178;13.546;2024-02-28T00:44:19;59.87;;;24.87;;
4420;SDS011;11824;51.178;13.546;2024-02-28T00:46:47;65.60;;;27.57;;
4420;SDS011;11824;51.178;13.546;2024-02-28T00:49:18;71.93;;;29.17;;
4420;SDS011;11824;51.178;13.546;2024-02-28T00:51:47;73.63;;;27.50;;
4420;SDS011;11824;51.178;13.546;2024-02-28T00:54:16;67.77;;;28.50;;
4420;SDS011;11824;51.178;13.546;2024-02-28T00:56:44;55.97;;;20.60;;
4420;SDS011;11824;51.178;13.546;2024-02-28T00:59:14;76.83;;;29.03;;
4420;SDS011;11824;51.178;13.546;2024-02-28T01:01:42;73.73;;;26.87;;
4420;SDS011;11824;51.178;13.546;2024-02-28T01:04:11;76.07;;;27.83;;
4420;SDS011;11824;51.178;13.546;2024-02-28T01:06:41;48.00;;;25.77;;
4420;SDS011;11824;51.178;13.546;2024-02-28T01:09:10;80.70;;;30.80;;
4420;SDS011;11824;51.178;13.546;2024-02-28T01:11:39;55.70;;;24.20;;
4420;SDS011;11824;51.178;13.546;2024-02-28T01:14:08;54.57;;;25.70;;
4420;SDS011;11824;51.178;13.546;2024-02-28T01:16:37;78.80;;;27.87;;
4420;SDS011;11824;51.178;13.546;2024-02-28T01:19:06;61.50;;;24.80;;
4420;SDS011;11824;51.178;13.546;2024-02-28T01:21:35;77.67;;;27.33;;
4420;SDS011;11824;51.178;13.546;2024-02-28T01:24:05;75.87;;;27.80;;
4420;SDS011;11824;51.178;13.546;2024-02-28T01:26:34;81.60;;;27.90;;
4420;SDS011;11824;51.178;13.546;2024-02-28T01:29:03;70.57;;;26.23;;
4420;SDS011;11824;51.178;13.546;2024-02-28T01:31:32;58.73;;;25.27;;
4420;SDS011;11824;51.178;13.546;2024-02-28T01:34:00;60.87;;;21.37;;
4420;SDS011;11824;51.178;13.546;2024-02-28T01:36:29;54.27;;;19.37;;
4420;SDS011;11824;51.178;13.546;2024-02-28T01:38:58;54.67;;;23.30;;
4420;SDS011;11824;51.178;13.546;2024-02-28T01:41:28;60.87;;;23.10;;
4420;SDS011;11824;51.178;13.546;2024-02-28T01:43:57;54.50;;;23.50;;
4420;SDS011;11824;51.178;13.546;2024-02-28T01:46:26;59.77;;;22.00;;
4420;SDS011;11824;51.178;13.546;2024-02-28T01:48:55;67.90;;;22.27;;
4420;SDS011;11824;51.178;13.546;2024-02-28T01:51:26;54.57;;;21.27;;
4420;SDS011;11824;51.178;13.546;2024-02-28T01:53:55;60.20;;;22.17;;
4420;SDS011;11824;51.178;13.546;2024-02-28T01:56:25;53.73;;;20.03;;
4420;SDS011;11824;51.178;13.546;2024-02-28T01:58:55;45.50;;;14.93;;
4420;SDS011;11824;51.178;13.546;2024-02-28T02:01:26;54.43;;;19.70;;
4420;SDS011;11824;51.178;13.546;2024-02-28T02:03:55;46.00;;;20.37;;
4420;SDS011;11824;51.178;13.546;2024-02-28T02:06:24;52.90;;;22.27;;
4420;SDS011;11824;51.178;13.546;2024-02-28T02:08:53;55.30;;;20.50;;
4420;SDS011;11824;51.178;13.546;2024-02-28T02:11:23;50.77;;;19.40;;
4420;SDS011;11824;51.178;13.546;2024-02-28T02:13:53;40.50;;;18.17;;
4420;SDS011;11824;51.178;13.546;2024-02-28T02:16:22;51.60;;;19.90;;
4420;SDS011;11824;51.178;13.546;2024-02-28T02:18:53;59.27;;;22.53;;
4420;SDS011;11824;51.178;13.546;2024-02-28T02:21:22;48.23;;;21.67;;
4420;SDS011;11824;51.178;13.546;2024-02-28T02:23:55;55.00;;;17.90;;
4420;SDS011;11824;51.178;13.546;2024-02-28T02:26:24;49.23;;;20.63;;
4420;SDS011;11824;51.178;13.546;2024-02-28T02:28:52;39.73;;;16.47;;
4420;SDS011;11824;51.178;13.546;2024-02-28T02:31:21;55.83;;;19.77;;
4420;SDS011;11824;51.178;13.546;2024-02-28T02:33:50;49.27;;;18.17;;
4420;SDS011;11824;51.178;13.546;2024-02-28T02:36:19;57.37;;;20.73;;
4420;SDS011;11824;51.178;13.546;2024-02-28T02:38:48;49.90;;;19.50;;
4420;SDS011;11824;51.178;13.546;2024-02-28T02:41:18;46.53;;;18.90;;
4420;SDS011;11824;51.178;13.546;2024-02-28T02:43:47;48.63;;;19.83;;
4420;SDS011;11824;51.178;13.546;2024-02-28T02:46:15;40.07;;;15.80;;
4420;SDS011;11824;51.178;13.546;2024-02-28T02:48:44;53.93;;;19.40;;
4420;SDS011;11824;51.178;13.546;2024-02-28T02:51:13;45.60;;;18.10;;
4420;SDS011;11824;51.178;13.546;2024-02-28T02:53:43;61.23;;;22.97;;
4420;SDS011;11824;51.178;13.546;2024-02-28T02:56:12;54.97;;;19.23;;
4420;SDS011;11824;51.178;13.546;2024-02-28T02:58:42;62.57;;;22.63;;
4420;SDS011;11824;51.178;13.546;2024-02-28T03:01:11;89.03;;;27.13;;
4420;SDS011;11824;51.178;13.546;2024-02-28T03:03:40;42.13;;;17.03;;
4420;SDS011;11824;51.178;13.546;2024-02-28T03:06:09;46.47;;;16.80;;
4420;SDS011;11824;51.178;13.546;2024-02-28T03:08:38;29.33;;;14.03;;
4420;SDS011;11824;51.178;13.546;2024-02-28T03:11:06;59.10;;;22.50;;
4420;SDS011;11824;51.178;13.546;2024-02-28T03:13:35;29.90;;;13.37;;
4420;SDS011;11824;51.178;13.546;2024-02-28T03:16:06;70.03;;;20.97;;
4420;SDS011;11824;51.178;13.546;2024-02-28T03:18:35;54.03;;;19.20;;
4420;SDS011;11824;51.178;13.546;2024-02-28T03:21:04;61.03;;;17.70;;
4420;SDS011;11824;51.178;13.546;2024-02-28T03:23:33;62.57;;;25.43;;
4420;SDS011;11824;51.178;13.546;2024-02-28T03:26:02;44.70;;;15.30;;
4420;SDS011;11824;51.178;13.546;2024-02-28T03:28:31;39.90;;;11.80;;
4420;SDS011;11824;51.178;13.546;2024-02-28T03:31:00;61.07;;;23.00;;
4420;SDS011;11824;51.178;13.546;2024-02-28T03:33:30;54.50;;;21.67;;
4420;SDS011;11824;51.178;13.546;2024-02-28T03:36:00;45.17;;;19.20;;
4420;SDS011;11824;51.178;13.546;2024-02-28T03:38:28;50.23;;;17.77;;
4420;SDS011;11824;51.178;13.546;2024-02-28T03:40:57;31.00;;;13.50;;
4420;SDS011;11824;51.178;13.546;2024-02-28T03:43:26;32.77;;;12.50;;
4420;SDS011;11824;51.178;13.546;2024-02-28T03:45:55;39.80;;;14.37;;
4420;SDS011;11824;51.178;13.546;2024-02-28T03:48:24;41.63;;;15.20;;
4420;SDS011;11824;51.178;13.546;2024-02-28T03:50:54;41.80;;;17.60;;
4420;SDS011;11824;51.178;13.546;2024-02-28T03:53:23;45.93;;;16.90;;
4420;SDS011;11824;51.178;13.546;2024-02-28T03:55:51;47.03;;;17.20;;
4420;SDS011;11824;51.178;13.546;2024-02-28T03:58:20;41.13;;;13.20;;
4420;SDS011;11824;51.178;13.546;2024-02-28T04:00:49;44.40;;;17.57;;
4420;SDS011;11824;51.178;13.546;2024-02-28T04:03:18;50.70;;;16.10;;
4420;SDS011;11824;51.178;13.546;2024-02-28T04:05:46;44.93;;;16.50;;
4420;SDS011;11824;51.178;13.546;2024-02-28T04:08:16;44.83;;;16.30;;
4420;SDS011;11824;51.178;13.546;2024-02-28T04:10:45;51.77;;;16.80;;
4420;SDS011;11824;51.178;13.546;2024-02-28T04:13:15;49.17;;;14.57;;
4420;SDS011;11824;51.178;13.546;2024-02-28T04:15:44;48.43;;;15.27;;
4420;SDS011;11824;51.178;13.546;2024-02-28T04:18:13;39.10;;;13.80;;
4420;SDS011;11824;51.178;13.546;2024-02-28T04:20:42;66.50;;;17.37;;
4420;SDS011;11824;51.178;13.546;2024-02-28T04:23:10;50.70;;;17.77;;
4420;SDS011;11824;51.178;13.546;2024-02-28T04:25:41;45.93;;;16.83;;
4420;SDS011;11824;51.178;13.546;2024-02-28T04:28:09;44.50;;;15.47;;
4420;SDS011;11824;51.178;13.546;2024-02-28T04:30:38;44.27;;;17.07;;
4420;SDS011;11824;51.178;13.546;2024-02-28T04:33:07;58.40;;;17.10;;
4420;SDS011;11824;51.178;13.546;2024-02-28T04:35:36;56.37;;;16.03;;
4420;SDS011;11824;51.178;13.546;2024-02-28T04:38:05;49.07;;;14.13;;
4420;SDS011;11824;51.178;13.546;2024-02-28T04:40:33;48.97;;;18.57;;
4420;SDS011;11824;51.178;13.546;2024-02-28T04:43:04;41.03;;;16.40;;
4420;SDS011;11824;51.178;13.546;2024-02-28T04:45:33;68.33;;;19.57;;
4420;SDS011;11824;51.178;13.546;2024-02-28T04:48:02;61.33;;;18.70;;
4420;SDS011;11824;51.178;13.546;2024-02-28T04:50:31;54.37;;;17.10;;
4420;SDS011;11824;51.178;13.546;2024-02-28T04:53:00;73.27;;;19.13;;
4420;SDS011;11824;51.178;13.546;2024-02-28T04:55:29;50.60;;;17.70;;
4420;SDS011;11824;51.178;13.546;2024-02-28T04:57:57;48.57;;;18.10;;
4420;SDS011;11824;51.178;13.546;2024-02-28T05:00:28;49.27;;;17.93;;
4420;SDS011;11824;51.178;13.546;2024-02-28T05:02:57;45.23;;;16.57;;
4420;SDS011;11824;51.178;13.546;2024-02-28T05:05:26;29.53;;;9.77;;
4420;SDS011;11824;51.178;13.546;2024-02-28T05:07:55;54.53;;;16.97;;
4420;SDS011;11824;51.178;13.546;2024-02-28T05:10:23;55.47;;;20.97;;
4420;SDS011;11824;51.178;13.546;2024-02-28T05:12:52;54.67;;;21.47;;
4420;SDS011;11824;51.178;13.546;2024-02-28T05:15:21;62.50;;;20.60;;
4420;SDS011;11824;51.178;13.546;2024-02-28T05:17:52;70.40;;;24.57;;
4420;SDS011;11824;51.178;13.546;2024-02-28T05:20:21;55.13;;;17.87;;
4420;SDS011;11824;51.178;13.546;2024-02-28T05:22:50;81.93;;;25.43;;
4420;SDS011;11824;51.178;13.546;2024-02-28T05:25:18;55.60;;;20.30;;
4420;SDS011;11824;51.178;13.546;2024-02-28T05:27:47;57.33;;;19.50;;
4420;SDS011;11824;51.178;13.546;2024-02-28T05:30:16;42.77;;;14.57;;
4420;SDS011;11824;51.178;13.546;2024-02-28T05:32:46;50.23;;;16.83;;
4420;SDS011;11824;51.178;13.546;2024-02-28T05:35:16;62.90;;;20.87;;
4420;SDS011;11824;51.178;13.546;2024-02-28T05:37:45;56.07;;;20.60;;
4420;SDS011;11824;51.178;13.546;2024-02-28T05:40:14;58.73;;;22.30;;
4420;SDS011;11824;51.178;13.546;2024-02-28T05:42:42;71.37;;;24.60;;
4420;SDS011;11824;51.178;13.546;2024-02-28T05:45:11;59.70;;;21.97;;
4420;SDS011;11824;51.178;13.546;2024-02-28T05:47:40;68.03;;;23.40;;
4420;SDS011;11824;51.178;13.546;2024-02-28T05:50:09;70.53;;;22.30;;
4420;SDS011;11824;51.178;13.546;2024-02-28T05:52:42;70.60;;;23.70;;
4420;SDS011;11824;51.178;13.546;2024-02-28T05:55:11;68.60;;;23.27;;
4420;SDS011;11824;51.178;13.546;2024-02-28T05:57:40;61.13;;;23.63;;
4420;SDS011;11824;51.178;13.546;2024-02-28T06:00:09;64.03;;;24.73;;
4420;SDS011;11824;51.178;13.546;2024-02-28T06:02:40;67.07;;;23.57;;
4420;SDS011;11824;51.178;13.546;2024-02-28T06:05:09;74.60;;;21.20;;
4420;SDS011;11824;51.178;13.546;2024-02-28T06:07:38;70.23;;;27.00;;
4420;SDS011;11824;51.178;13.546;2024-02-28T06:10:08;66.00;;;22.70;;
4420;SDS011;11824;51.178;13.546;2024-02-28T06:12:37;63.33;;;23.80;;
4420;SDS011;11824;51.178;13.546;2024-02-28T06:15:07;67.00;;;24.53;;
4420;SDS011;11824;51.178;13.546;2024-02-28T06:17:37;66.13;;;22.40;;
4420;SDS011;11824;51.178;13.546;2024-02-28T06:20:06;58.23;;;22.57;;
4420;SDS011;11824;51.178;13.546;2024-02-28T06:22:35;77.17;;;25.33;;
4420;SDS011;11824;51.178;13.546;2024-02-28T06:25:04;74.53;;;24.60;;
4420;SDS011;11824;51.178;13.546;2024-02-28T06:27:44;55.37;;;20.23;;
4420;SDS011;11824;51.178;13.546;2024-02-28T06:30:13;75.70;;;24.30;;
4420;SDS011;11824;51.178;13.546;2024-02-28T06:32:43;61.80;;;20.30;;
4420;SDS011;11824;51.178;13.546;2024-02-28T06:35:12;65.00;;;22.77;;
4420;SDS011;11824;51.178;13.546;2024-02-28T06:37:41;48.37;;;16.97;;
4420;SDS011;11824;51.178;13.546;2024-02-28T06:40:16;29.83;;;11.00;;
4420;SDS011;11824;51.178;13.546;2024-02-28T06:42:44;49.60;;;18.80;;
4420;SDS011;11824;51.178;13.546;2024-02-28T06:45:13;53.43;;;20.90;;
4420;SDS011;11824;51.178;13.546;2024-02-28T06:47:44;50.07;;;16.60;;
4420;SDS011;11824;51.178;13.546;2024-02-28T06:50:12;40.03;;;15.03;;
4420;SDS011;11824;51.178;13.546;2024-02-28T06:52:41;30.80;;;14.93;;
4420;SDS011;11824;51.178;13.546;2024-02-28T06:55:10;35.90;;;15.30;;
4420;SDS011;11824;51.178;13.546;2024-02-28T06:57:42;50.60;;;19.00;;
4420;SDS011;11824;51.178;13.546;2024-02-28T07:00:11;44.20;;;14.90;;
4420;SDS011;11824;51.178;13.546;2024-02-28T07:02:41;35.50;;;13.83;;
4420;SDS011;11824;51.178;13.546;2024-02-28T07:05:10;44.27;;;15.33;;
4420;SDS011;11824;51.178;13.546;2024-02-28T07:07:40;37.93;;;16.03;;
4420;SDS011;11824;51.178;13.546;2024-02-28T07:10:09;50.40;;;18.03;;
4420;SDS011;11824;51.178;13.546;2024-02-28T07:12:38;37.00;;;15.30;;
4420;SDS011;11824;51.178;13.546;2024-02-28T07:15:09;51.37;;;24.40;;
4420;SDS011;11824;51.178;13.546;2024-02-28T07:17:37;40.93;;;16.30;;
4420;SDS011;11824;51.178;13.546;2024-02-28T07:20:06;45.60;;;17.87;;
4420;SDS011;11824;51.178;13.546;2024-02-28T07:22:36;39.47;;;13.83;;
4420;SDS011;11824;51.178;13.546;2024-02-28T07:25:05;37.27;;;16.80;;
4420;SDS011;11824;51.178;13.546;2024-02-28T07:27:34;46.07;;;17.10;;
4420;SDS011;11824;51.178;13.546;2024-02-28T07:30:03;57.60;;;19.73;;
4420;SDS011;11824;51.178;13.546;2024-02-28T07:32:35;46.83;;;19.30;;
4420;SDS011;11824;51.178;13.546;2024-02-28T07:35:04;47.83;;;20.00;;
4420;SDS011;11824;51.178;13.546;2024-02-28T07:37:33;45.20;;;18.27;;
4420;SDS011;11824;51.178;13.546;2024-02-28T07:40:02;41.70;;;18.53;;
4420;SDS011;11824;51.178;13.546;2024-02-28T07:42:31;39.60;;;17.63;;
4420;SDS011;11824;51.178;13.546;2024-02-28T07:45:01;43.17;;;15.50;;
4420;SDS011;11824;51.178;13.546;2024-02-28T07:47:30;28.07;;;15.33;;
4420;SDS011;11824;51.178;13.546;2024-02-28T07:50:00;38.10;;;16.60;;
4420;SDS011;11824;51.178;13.546;2024-02-28T07:52:29;33.87;;;15.90;;
4420;SDS011;11824;51.178;13.546;2024-02-28T07:55:01;34.43;;;11.73;;
4420;SDS011;11824;51.178;13.546;2024-02-28T07:57:31;36.03;;;13.77;;
4420;SDS011;11824;51.178;13.546;2024-02-28T08:00:00;27.10;;;11.67;;
4420;SDS011;11824;51.178;13.546;2024-02-28T08:02:29;36.17;;;12.50;;
4420;SDS011;11824;51.178;13.546;2024-02-28T08:04:59;35.40;;;15.93;;
4420;SDS011;11824;51.178;13.546;2024-02-28T08:07:29;36.57;;;16.90;;
4420;SDS011;11824;51.178;13.546;2024-02-28T08:09:57;23.63;;;9.50;;
4420;SDS011;11824;51.178;13.546;2024-02-28T08:12:26;28.27;;;10.40;;
4420;SDS011;11824;51.178;13.546;2024-02-28T08:14:55;26.73;;;10.20;;
4420;SDS011;11824;51.178;13.546;2024-02-28T08:17:24;20.93;;;9.00;;
4420;SDS011;11824;51.178;13.546;2024-02-28T08:19:52;27.77;;;11.83;;
4420;SDS011;11824;51.178;13.546;2024-02-28T08:22:23;25.60;;;11.83;;
4420;SDS011;11824;51.178;13.546;2024-02-28T08:24:52;31.60;;;14.60;;
4420;SDS011;11824;51.178;13.546;2024-02-28T08:27:20;28.20;;;13.10;;
4420;SDS011;11824;51.178;13.546;2024-02-28T08:29:49;28.10;;;11.70;;
4420;SDS011;11824;51.178;13.546;2024-02-28T08:32:18;26.13;;;14.57;;
4420;SDS011;11824;51.178;13.546;2024-02-28T08:34:47;29.53;;;14.40;;
4420;SDS011;11824;51.178;13.546;2024-02-28T08:37:16;25.47;;;10.83;;
4420;SDS011;11824;51.178;13.546;2024-02-28T08:39:46;25.87;;;12.50;;
4420;SDS011;11824;51.178;13.546;2024-02-28T08:42:15;32.63;;;15.63;;
4420;SDS011;11824;51.178;13.546;2024-02-28T08:44:44;26.80;;;12.93;;
4420;SDS011;11824;51.178;13.546;2024-02-28T08:47:14;26.87;;;11.60;;
4420;SDS011;11824;51.178;13.546;2024-02-28T08:49:43;25.50;;;15.13;;
4420;SDS011;11824;51.178;13.546;2024-02-28T08:52:11;20.60;;;11.60;;
4420;SDS011;11824;51.178;13.546;2024-02-28T08:54:40;31.10;;;13.87;;
4420;SDS011;11824;51.178;13.546;2024-02-28T08:57:10;33.63;;;16.00;;
4420;SDS011;11824;51.178;13.546;2024-02-28T08:59:39;22.60;;;11.47;;
4420;SDS011;11824;51.178;13.546;2024-02-28T09:02:08;22.60;;;9.77;;
4420;SDS011;11824;51.178;13.546;2024-02-28T09:04:37;20.90;;;11.60;;
4420;SDS011;11824;51.178;13.546;2024-02-28T09:07:07;22.97;;;12.03;;
4420;SDS011;11824;51.178;13.546;2024-02-28T09:09:35;17.60;;;11.10;;
4420;SDS011;11824;51.178;13.546;2024-02-28T09:12:06;23.73;;;10.93;;
4420;SDS011;11824;51.178;13.546;2024-02-28T09:14:37;25.40;;;13.13;;
4420;SDS011;11824;51.178;13.546;2024-02-28T09:17:05;24.63;;;12.93;;
4420;SDS011;11824;51.178;13.546;2024-02-28T09:19:34;23.30;;;11.10;;
4420;SDS011;11824;51.178;13.546;2024-02-28T09:22:03;23.20;;;11.77;;
4420;SDS011;11824;51.178;13.546;2024-02-28T09:24:32;20.67;;;9.97;;
4420;SDS011;11824;51.178;13.546;2024-02-28T09:27:02;28.97;;;14.83;;
4420;SDS011;11824;51.178;13.546;2024-02-28T09:29:31;36.40;;;12.00;;
4420;SDS011;11824;51.178;13.546;2024-02-28T09:32:01;28.13;;;15.00;;
4420;SDS011;11824;51.178;13.546;2024-02-28T09:34:30;26.77;;;14.07;;
4420;SDS011;11824;51.178;13.546;2024-02-28T09:36:59;35.93;;;6.70;;
4420;SDS011;11824;51.178;13.546;2024-02-28T09:39:28;23.90;;;11.97;;
4420;SDS011;11824;51.178;13.546;2024-02-28T09:41:57;27.53;;;13.03;;
4420;SDS011;11824;51.178;13.546;2024-02-28T09:44:26;25.87;;;12.77;;
4420;SDS011;11824;51.178;13.546;2024-02-28T09:46:55;22.20;;;12.00;;
4420;SDS011;11824;51.178;13.546;2024-02-28T09:49:25;24.73;;;13.50;;
4420;SDS011;11824;51.178;13.546;2024-02-28T09:51:55;27.97;;;13.60;;
4420;SDS011;11824;51.178;13.546;2024-02-28T09:54:26;30.50;;;15.53;;
4420;SDS011;11824;51.178;13.546;2024-02-28T09:56:55;40.33;;;15.60;;
4420;SDS011;11824;51.178;13.546;2024-02-28T09:59:24;34.43;;;13.83;;
4420;SDS011;11824;51.178;13.546;2024-02-28T10:02:09;31.83;;;16.17;;
4420;SDS011;11824;51.178;13.546;2024-02-28T10:04:40;36.70;;;17.10;;
4420;SDS011;11824;51.178;13.546;2024-02-28T10:07:10;24.80;;;13.93;;
4420;SDS011;11824;51.178;13.546;2024-02-28T10:09:40;32.27;;;15.77;;
4420;SDS011;11824;51.178;13.546;2024-02-28T10:12:09;30.23;;;15.77;;
4420;SDS011;11824;51.178;13.546;2024-02-28T10:14:38;46.17;;;19.10;;
4420;SDS011;11824;51.178;13.546;2024-02-28T10:17:07;34.70;;;17.00;;
4420;SDS011;11824;51.178;13.546;2024-02-28T10:19:35;38.67;;;16.57;;
4420;SDS011;11824;51.178;13.546;2024-02-28T10:22:07;26.10;;;12.00;;
4420;SDS011;11824;51.178;13.546;2024-02-28T10:24:36;37.90;;;18.40;;
4420;SDS011;11824;51.178;13.546;2024-02-28T10:27:05;37.00;;;17.20;;
4420;SDS011;11824;51.178;13.546;2024-02-28T10:29:33;38.40;;;19.53;;
4420;SDS011;11824;51.178;13.546;2024-02-28T10:32:03;35.30;;;15.57;;
4420;SDS011;11824;51.178;13.546;2024-02-28T10:34:32;27.03;;;13.10;;
4420;SDS011;11824;51.178;13.546;2024-02-28T10:37:02;37.23;;;17.13;;
4420;SDS011;11824;51.178;13.546;2024-02-28T10:39:34;29.13;;;14.60;;
4420;SDS011;11824;51.178;13.546;2024-02-28T10:42:04;30.10;;;13.77;;
4420;SDS011;11824;51.178;13.546;2024-02-28T10:44:36;39.07;;;17.47;;
4420;SDS011;11824;51.178;13.546;2024-02-28T10:47:05;33.77;;;16.40;;
4420;SDS011;11824;51.178;13.546;2024-02-28T10:49:38;35.73;;;17.20;;
4420;SDS011;11824;51.178;13.546;2024-02-28T10:52:10;37.23;;;16.07;;
4420;SDS011;11824;51.178;13.546;2024-02-28T10:54:41;34.00;;;15.73;;
4420;SDS011;11824;51.178;13.546;2024-02-28T10:57:12;33.40;;;19.17;;
4420;SDS011;11824;51.178;13.546;2024-02-28T10:59:42;38.33;;;18.47;;
4420;SDS011;11824;51.178;13.546;2024-02-28T11:02:12;34.67;;;17.80;;
4420;SDS011;11824;51.178;13.546;2024-02-28T11:04:41;43.73;;;20.27;;
4420;SDS011;11824;51.178;13.546;2024-02-28T11:07:10;42.43;;;17.07;;
4420;SDS011;11824;51.178;13.546;2024-02-28T11:09:47;41.53;;;18.20;;
4420;SDS011;11824;51.178;13.546;2024-02-28T11:12:24;41.57;;;21.00;;
4420;SDS011;11824;51.178;13.546;2024-02-28T11:14:57;40.17;;;18.47;;
4420;SDS011;11824;51.178;13.546;2024-02-28T11:17:27;46.20;;;21.70;;
4420;SDS011;11824;51.178;13.546;2024-02-28T11:19:57;45.47;;;21.43;;
4420;SDS011;11824;51.178;13.546;2024-02-28T11:22:27;39.67;;;20.07;;
4420;SDS011;11824;51.178;13.546;2024-02-28T11:25:00;35.80;;;18.30;;
4420;SDS011;11824;51.178;13.546;2024-02-28T11:27:31;42.53;;;18.50;;
4420;SDS011;11824;51.178;13.546;2024-02-28T11:29:59;48.37;;;19.83;;
4420;SDS011;11824;51.178;13.546;2024-02-28T11:32:29;39.03;;;19.20;;
4420;SDS011;11824;51.178;13.546;2024-02-28T11:35:00;42.83;;;20.80;;
4420;SDS011;11824;51.178;13.546;2024-02-28T11:37:29;47.90;;;22.73;;
4420;SDS011;11824;51.178;13.546;2024-02-28T11:40:00;30.07;;;16.10;;
4420;SDS011;11824;51.178;13.546;2024-02-28T11:42:30;40.73;;;21.50;;
4420;SDS011;11824;51.178;13.546;2024-02-28T11:45:01;38.40;;;19.17;;
4420;SDS011;11824;51.178;13.546;2024-02-28T11:47:31;40.17;;;21.50;;
4420;SDS011;11824;51.178;13.546;2024-02-28T11:50:02;41.10;;;21.10;;
4420;SDS011;11824;51.178;13.546;2024-02-28T11:52:35;45.00;;;20.70;;
4420;SDS011;11824;51.178;13.546;2024-02-28T11:55:06;40.10;;;20.97;;
4420;SDS011;11824;51.178;13.546;2024-02-28T11:57:35;39.93;;;21.10;;
4420;SDS011;11824;51.178;13.546;2024-02-28T12:00:06;37.83;;;20.63;;
4420;SDS011;11824;51.178;13.546;2024-02-28T12:02:39;45.07;;;22.83;;
4420;SDS011;11824;51.178;13.546;2024-02-28T12:05:08;47.03;;;22.50;;
4420;SDS011;11824;51.178;13.546;2024-02-28T12:07:37;43.50;;;20.17;;
4420;SDS011;11824;51.178;13.546;2024-02-28T12:10:07;35.00;;;20.60;;
4420;SDS011;11824;51.178;13.546;2024-02-28T12:12:38;53.17;;;27.50;;
4420;SDS011;11824;51.178;13.546;2024-02-28T12:15:08;37.13;;;19.60;;
4420;SDS011;11824;51.178;13.546;2024-02-28T12:17:38;47.87;;;22.93;;
4420;SDS011;11824;51.178;13.546;2024-02-28T12:20:08;46.40;;;24.97;;
4420;SDS011;11824;51.178;13.546;2024-02-28T12:22:37;43.10;;;20.73;;
4420;SDS011;11824;51.178;13.546;2024-02-28T12:25:06;42.53;;;20.57;;
4420;SDS011;11824;51.178;13.546;2024-02-28T12:27:36;45.97;;;20.47;;
4420;SDS011;11824;51.178;13.546;2024-02-28T12:30:05;46.07;;;22.63;;
4420;SDS011;11824;51.178;13.546;2024-02-28T12:32:35;39.57;;;20.47;;
4420;SDS011;11824;51.178;13.546;2024-02-28T12:35:04;50.37;;;23.63;;
4420;SDS011;11824;51.178;13.546;2024-02-28T12:37:33;45.03;;;21.00;;
4420;SDS011;11824;51.178;13.546;2024-02-28T12:40:02;38.20;;;20.23;;
4420;SDS011;11824;51.178;13.546;2024-02-28T12:42:33;37.33;;;18.60;;
4420;SDS011;11824;51.178;13.546;2024-02-28T12:45:06;34.93;;;18.30;;
4420;SDS011;11824;51.178;13.546;2024-02-28T12:47:35;32.13;;;18.53;;
4420;SDS011;11824;51.178;13.546;2024-02-28T12:50:05;31.27;;;17.03;;
4420;SDS011;11824;51.178;13.546;2024-02-28T12:52:35;36.30;;;19.63;;
4420;SDS011;11824;51.178;13.546;2024-02-28T12:55:04;33.63;;;17.10;;
4420;SDS011;11824;51.178;13.546;2024-02-28T12:57:35;30.03;;;18.27;;
4420;SDS011;11824;51.178;13.546;2024-02-28T13:00:04;32.43;;;16.73;;
4420;SDS011;11824;51.178;13.546;2024-02-28T13:02:34;27.43;;;15.97;;
4420;SDS011;11824;51.178;13.546;2024-02-28T13:05:03;32.73;;;19.37;;
4420;SDS011;11824;51.178;13.546;2024-02-28T13:07:32;33.70;;;19.37;;
4420;SDS011;11824;51.178;13.546;2024-02-28T13:10:02;31.20;;;19.03;;
4420;SDS011;11824;51.178;13.546;2024-02-28T13:12:32;36.47;;;19.10;;
4420;SDS011;11824;51.178;13.546;2024-02-28T13:15:02;37.50;;;22.43;;
4420;SDS011;11824;51.178;13.546;2024-02-28T13:17:31;39.10;;;23.33;;
4420;SDS011;11824;51.178;13.546;2024-02-28T13:20:01;41.87;;;23.23;;
4420;SDS011;11824;51.178;13.546;2024-02-28T13:22:30;40.03;;;24.10;;
4420;SDS011;11824;51.178;13.546;2024-02-28T13:24:59;43.63;;;22.67;;
4420;SDS011;11824;51.178;13.546;2024-02-28T13:27:28;40.30;;;23.10;;
4420;SDS011;11824;51.178;13.546;2024-02-28T13:29:58;43.67;;;23.80;;
4420;SDS011;11824;51.178;13.546;2024-02-28T13:32:27;36.50;;;22.67;;
4420;SDS011;11824;51.178;13.546;2024-02-28T13:34:56;35.77;;;20.70;;
4420;SDS011;11824;51.178;13.546;2024-02-28T13:37:24;39.60;;;21.17;;
4420;SDS011;11824;51.178;13.546;2024-02-28T13:39:53;46.87;;;22.50;;
4420;SDS011;11824;51.178;13.546;2024-02-28T13:42:23;45.13;;;25.77;;
4420;SDS011;11824;51.178;13.546;2024-02-28T13:44:51;43.43;;;26.43;;
4420;SDS011;11824;51.178;13.546;2024-02-28T13:47:23;41.37;;;25.43;;
4420;SDS011;11824;51.178;13.546;2024-02-28T13:49:51;47.40;;;28.83;;
4420;SDS011;11824;51.178;13.546;2024-02-28T13:52:20;47.67;;;23.20;;
4420;SDS011;11824;51.178;13.546;2024-02-28T13:54:49;47.90;;;26.53;;
4420;SDS011;11824;51.178;13.546;2024-02-28T13:57:18;40.10;;;22.17;;
4420;SDS011;11824;51.178;13.546;2024-02-28T13:59:47;47.93;;;26.00;;
4420;SDS011;11824;51.178;13.546;2024-02-28T14:02:19;40.70;;;22.87;;
4420;SDS011;11824;51.178;13.546;2024-02-28T14:04:53;51.33;;;27.93;;
4420;SDS011;11824;51.178;13.546;2024-02-28T14:07:22;44.33;;;24.50;;
4420;SDS011;11824;51.178;13.546;2024-02-28T14:09:51;54.33;;;26.30;;
4420;SDS011;11824;51.178;13.546;2024-02-28T14:12:20;47.30;;;27.97;;
4420;SDS011;11824;51.178;13.546;2024-02-28T14:14:48;52.83;;;27.43;;
4420;SDS011;11824;51.178;13.546;2024-02-28T14:17:17;48.47;;;28.40;;
4420;SDS011;11824;51.178;13.546;2024-02-28T14:19:47;50.77;;;26.30;;
4420;SDS011;11824;51.178;13.546;2024-02-28T14:22:16;45.73;;;26.93;;
4420;SDS011;11824;51.178;13.546;2024-02-28T14:24:45;51.97;;;28.10;;
4420;SDS011;11824;51.178;13.546;2024-02-28T14:27:14;46.27;;;27.70;;
4420;SDS011;11824;51.178;13.546;2024-02-28T14:29:43;44.60;;;26.07;;
4420;SDS011;11824;51.178;13.546;2024-02-28T14:32:12;45.20;;;26.37;;
4420;SDS011;11824;51.178;13.546;2024-02-28T14:34:43;51.83;;;27.97;;